HISTORICAL SENSOR DATA

Sensor Data Report

DB LIVE
CURRENT TIME--:--:--
DEVICE NETWORK Gateway Status
13 ESP · realtime ~1s · history 60s
Weather WS-MOD-01
OFFLINE
Actuator ACT-MOD-01
OFFLINE
Mainboard L3 MB-L3-01
OFFLINE
Mainboard L5 MB-L5-01
OFFLINE
Remote AC AC-REMOTE-01
OFFLINE
PZEM L3-01 PWR-L3-01
OFFLINE
PZEM L3-02 PWR-L3-02
OFFLINE
PZEM L3-03 PWR-L3-03
OFFLINE
PZEM L3-04 PWR-L3-04
OFFLINE
PZEM L5-01 PWR-L5-01
OFFLINE
PZEM L5-02 PWR-L5-02
OFFLINE
PZEM L5-03 PWR-L5-03
OFFLINE
PZEM L5-04 PWR-L5-04
OFFLINE
REPORT FILTER

Periode & Sensor

DATABASE HISTORY
RESET
QUICK RANGE Hari ini 7 hari 30 hari
PERIODE02 Sep 2026sampai 02 Sep 2026
TOTAL DATA40,278sensor readings
MINIMUM-0.50sesuai filter
AVERAGE56.78sesuai filter
MAXIMUM998.00sesuai filter
REPORT RESULT

Data Sensor

02/09/2026 — 02/09/2026 EXPORT CSV
NOTANGGALWAKTUDEVICECHANNELSENSORVALUEUNIT
10901 02/09/2026 14:55:17 MB-L5-01Mainboard Lantai 5 L5-LUX-03 Illuminance / LUX 3 157.90 lux
10902 02/09/2026 14:55:17 MB-L5-01Mainboard Lantai 5 L5-BGT-02 Black Globe Temperature 2 29.70 °C
10903 02/09/2026 14:55:15 MB-L5-01Mainboard Lantai 5 L5-ST-02 Surface Temperature 2 30.50 °C
10904 02/09/2026 14:55:15 MB-L3-01Mainboard Lantai 3 L3-LUX-03 Illuminance / LUX 3 101.40 lux
10905 02/09/2026 14:55:15 MB-L3-01Mainboard Lantai 3 L3-SHT-01-RH SHT20 1 Humidity 48.70 %RH
10906 02/09/2026 14:55:15 MB-L3-01Mainboard Lantai 3 L3-AI-03 Analog Input 3 3.12 V
10907 02/09/2026 14:55:15 MB-L5-01Mainboard Lantai 5 L5-LUX-02 Illuminance / LUX 2 107.30 lux
10908 02/09/2026 14:55:15 MB-L5-01Mainboard Lantai 5 L5-ST-01 Surface Temperature 1 30.30 °C
10909 02/09/2026 14:55:15 MB-L3-01Mainboard Lantai 3 L3-SHT-03-RH SHT20 3 Humidity 49.30 %RH
10910 02/09/2026 14:55:15 MB-L3-01Mainboard Lantai 3 L3-SHT-02-RH SHT20 2 Humidity 48.50 %RH
10911 02/09/2026 14:55:15 MB-L3-01Mainboard Lantai 3 L3-BGT-01 Black Globe Temperature 1 29.80 °C
10912 02/09/2026 14:55:15 MB-L5-01Mainboard Lantai 5 L5-RAD-02 Radiation 2 1.00 W/m²
10913 02/09/2026 14:55:15 MB-L3-01Mainboard Lantai 3 L3-LUX-01 Illuminance / LUX 1 19.50 lux
10914 02/09/2026 14:55:15 MB-L5-01Mainboard Lantai 5 L5-LUX-05 Illuminance / LUX 5 406.00 lux
10915 02/09/2026 14:55:15 MB-L3-01Mainboard Lantai 3 L3-RAD-02 Radiation 2 1.00 W/m²
10916 02/09/2026 14:55:15 MB-L3-01Mainboard Lantai 3 L3-SHT-03-T SHT20 3 Temperature 31.70 °C
10917 02/09/2026 14:55:15 MB-L5-01Mainboard Lantai 5 L5-AI-06 Analog Input 6 3.05 V
10918 02/09/2026 14:55:15 MB-L5-01Mainboard Lantai 5 L5-SHT-02-RH SHT20 2 Humidity 48.40 %RH
10919 02/09/2026 14:55:15 MB-L3-01Mainboard Lantai 3 L3-AI-04 Analog Input 4 3.12 V
10920 02/09/2026 14:55:15 MB-L5-01Mainboard Lantai 5 L5-LUX-04 Illuminance / LUX 4 161.30 lux
10921 02/09/2026 14:55:15 MB-L3-01Mainboard Lantai 3 L3-BGT-02 Black Globe Temperature 2 29.80 °C
10922 02/09/2026 14:55:15 MB-L3-01Mainboard Lantai 3 L3-RAD-01 Radiation 1 1.00 W/m²
10923 02/09/2026 14:55:15 MB-L5-01Mainboard Lantai 5 L5-AI-05 Analog Input 5 3.05 V
10924 02/09/2026 14:55:15 MB-L5-01Mainboard Lantai 5 L5-SHT-03-T SHT20 3 Temperature 32.10 °C
10925 02/09/2026 14:55:15 MB-L5-01Mainboard Lantai 5 L5-SHT-02-T SHT20 2 Temperature 32.20 °C
10926 02/09/2026 14:55:15 MB-L5-01Mainboard Lantai 5 L5-SHT-03-RH SHT20 3 Humidity 49.00 %RH
10927 02/09/2026 14:55:15 MB-L5-01Mainboard Lantai 5 L5-AI-04 Analog Input 4 3.05 V
10928 02/09/2026 14:55:15 MB-L3-01Mainboard Lantai 3 L3-ST-01 Surface Temperature 1 29.90 °C
10929 02/09/2026 14:55:15 MB-L5-01Mainboard Lantai 5 L5-AI-03 Analog Input 3 3.05 V
10930 02/09/2026 14:55:15 MB-L3-01Mainboard Lantai 3 L3-AI-05 Analog Input 5 3.12 V
10931 02/09/2026 14:55:15 MB-L5-01Mainboard Lantai 5 L5-RAD-01 Radiation 1 1.00 W/m²
10932 02/09/2026 14:55:15 MB-L3-01Mainboard Lantai 3 L3-SHT-02-T SHT20 2 Temperature 32.10 °C
10933 02/09/2026 14:55:15 MB-L5-01Mainboard Lantai 5 L5-AI-02 Analog Input 2 3.05 V
10934 02/09/2026 14:55:15 MB-L3-01Mainboard Lantai 3 L3-BGT-03 Black Globe Temperature 3 29.10 °C
10935 02/09/2026 14:55:15 MB-L3-01Mainboard Lantai 3 L3-LUX-05 Illuminance / LUX 5 35.90 lux
10936 02/09/2026 14:55:15 MB-L3-01Mainboard Lantai 3 L3-ST-02 Surface Temperature 2 30.00 °C
10937 02/09/2026 14:55:15 MB-L5-01Mainboard Lantai 5 L5-AI-01 Analog Input 1 3.05 V
10938 02/09/2026 14:55:15 MB-L3-01Mainboard Lantai 3 L3-AI-06 Analog Input 6 3.12 V
10939 02/09/2026 14:55:15 MB-L3-01Mainboard Lantai 3 L3-LUX-06 Illuminance / LUX 6 30.50 lux
10940 02/09/2026 14:55:15 MB-L3-01Mainboard Lantai 3 L3-AI-01 Analog Input 1 3.12 V
10941 02/09/2026 14:55:15 MB-L5-01Mainboard Lantai 5 L5-BGT-03 Black Globe Temperature 3 29.70 °C
10942 02/09/2026 14:55:15 MB-L3-01Mainboard Lantai 3 L3-HFT-01 Heat Flow Temperature 1 29.60 °C
10943 02/09/2026 14:55:15 MB-L5-01Mainboard Lantai 5 L5-LUX-01 Illuminance / LUX 1 224.40 lux
10944 02/09/2026 14:55:15 MB-L5-01Mainboard Lantai 5 L5-LUX-03 Illuminance / LUX 3 162.90 lux
10945 02/09/2026 14:55:15 MB-L5-01Mainboard Lantai 5 L5-BGT-02 Black Globe Temperature 2 29.70 °C
10946 02/09/2026 14:55:15 MB-L3-01Mainboard Lantai 3 L3-LUX-02 Illuminance / LUX 2 34.40 lux
10947 02/09/2026 14:55:15 MB-L5-01Mainboard Lantai 5 L5-BGT-01 Black Globe Temperature 1 29.80 °C
10948 02/09/2026 14:55:15 MB-L3-01Mainboard Lantai 3 L3-AI-02 Analog Input 2 3.12 V
10949 02/09/2026 14:55:15 MB-L3-01Mainboard Lantai 3 L3-LUX-04 Illuminance / LUX 4 57.60 lux
10950 02/09/2026 14:55:15 MB-L5-01Mainboard Lantai 5 L5-HFT-02 Heat Flow Temperature 2 30.10 °C
10951 02/09/2026 14:55:15 MB-L3-01Mainboard Lantai 3 L3-HFT-02 Heat Flow Temperature 2 29.10 °C
10952 02/09/2026 14:55:15 MB-L3-01Mainboard Lantai 3 L3-SHT-01-T SHT20 1 Temperature 32.10 °C
10953 02/09/2026 14:55:15 MB-L5-01Mainboard Lantai 5 L5-HFT-01 Heat Flow Temperature 1 30.30 °C
10954 02/09/2026 14:55:15 MB-L5-01Mainboard Lantai 5 L5-LUX-06 Illuminance / LUX 6 48.40 lux
10955 02/09/2026 14:55:14 MB-L3-01Mainboard Lantai 3 L3-AI-04 Analog Input 4 3.12 V
10956 02/09/2026 14:55:14 MB-L3-01Mainboard Lantai 3 L3-BGT-02 Black Globe Temperature 2 29.70 °C
10957 02/09/2026 14:55:14 MB-L3-01Mainboard Lantai 3 L3-RAD-01 Radiation 1 1.00 W/m²
10958 02/09/2026 14:55:14 MB-L3-01Mainboard Lantai 3 L3-ST-01 Surface Temperature 1 30.00 °C
10959 02/09/2026 14:55:14 MB-L3-01Mainboard Lantai 3 L3-AI-05 Analog Input 5 3.12 V
10960 02/09/2026 14:55:14 MB-L3-01Mainboard Lantai 3 L3-SHT-02-T SHT20 2 Temperature 32.00 °C
10961 02/09/2026 14:55:14 MB-L3-01Mainboard Lantai 3 L3-BGT-03 Black Globe Temperature 3 29.20 °C
10962 02/09/2026 14:55:14 MB-L3-01Mainboard Lantai 3 L3-LUX-05 Illuminance / LUX 5 39.20 lux
10963 02/09/2026 14:55:14 MB-L3-01Mainboard Lantai 3 L3-ST-02 Surface Temperature 2 30.00 °C
10964 02/09/2026 14:55:14 MB-L3-01Mainboard Lantai 3 L3-AI-06 Analog Input 6 3.12 V
10965 02/09/2026 14:55:14 MB-L3-01Mainboard Lantai 3 L3-LUX-06 Illuminance / LUX 6 30.90 lux
10966 02/09/2026 14:55:14 MB-L3-01Mainboard Lantai 3 L3-AI-01 Analog Input 1 3.12 V
10967 02/09/2026 14:55:14 MB-L3-01Mainboard Lantai 3 L3-HFT-01 Heat Flow Temperature 1 29.70 °C
10968 02/09/2026 14:55:14 MB-L3-01Mainboard Lantai 3 L3-LUX-02 Illuminance / LUX 2 37.10 lux
10969 02/09/2026 14:55:14 MB-L3-01Mainboard Lantai 3 L3-AI-02 Analog Input 2 3.12 V
10970 02/09/2026 14:55:14 MB-L3-01Mainboard Lantai 3 L3-LUX-04 Illuminance / LUX 4 69.40 lux
10971 02/09/2026 14:55:14 MB-L3-01Mainboard Lantai 3 L3-HFT-02 Heat Flow Temperature 2 29.20 °C
10972 02/09/2026 14:55:14 MB-L3-01Mainboard Lantai 3 L3-SHT-01-T SHT20 1 Temperature 32.20 °C
10973 02/09/2026 14:55:14 MB-L3-01Mainboard Lantai 3 L3-LUX-03 Illuminance / LUX 3 105.10 lux
10974 02/09/2026 14:55:14 MB-L3-01Mainboard Lantai 3 L3-SHT-01-RH SHT20 1 Humidity 48.70 %RH
10975 02/09/2026 14:55:14 MB-L3-01Mainboard Lantai 3 L3-AI-03 Analog Input 3 3.12 V
10976 02/09/2026 14:55:14 MB-L3-01Mainboard Lantai 3 L3-SHT-03-RH SHT20 3 Humidity 49.20 %RH
10977 02/09/2026 14:55:14 MB-L3-01Mainboard Lantai 3 L3-SHT-02-RH SHT20 2 Humidity 48.60 %RH
10978 02/09/2026 14:55:14 MB-L3-01Mainboard Lantai 3 L3-BGT-01 Black Globe Temperature 1 29.80 °C
10979 02/09/2026 14:55:14 MB-L3-01Mainboard Lantai 3 L3-LUX-01 Illuminance / LUX 1 25.30 lux
10980 02/09/2026 14:55:14 MB-L3-01Mainboard Lantai 3 L3-RAD-02 Radiation 2 1.00 W/m²
10981 02/09/2026 14:55:14 MB-L3-01Mainboard Lantai 3 L3-SHT-03-T SHT20 3 Temperature 31.80 °C
10982 02/09/2026 14:55:13 MB-L5-01Mainboard Lantai 5 L5-AI-06 Analog Input 6 3.05 V
10983 02/09/2026 14:55:13 MB-L5-01Mainboard Lantai 5 L5-SHT-02-RH SHT20 2 Humidity 48.20 %RH
10984 02/09/2026 14:55:13 MB-L5-01Mainboard Lantai 5 L5-LUX-04 Illuminance / LUX 4 175.40 lux
10985 02/09/2026 14:55:13 MB-L5-01Mainboard Lantai 5 L5-AI-05 Analog Input 5 3.05 V
10986 02/09/2026 14:55:13 MB-L5-01Mainboard Lantai 5 L5-SHT-03-T SHT20 3 Temperature 32.20 °C
10987 02/09/2026 14:55:13 MB-L5-01Mainboard Lantai 5 L5-SHT-02-T SHT20 2 Temperature 32.20 °C
10988 02/09/2026 14:55:13 MB-L5-01Mainboard Lantai 5 L5-SHT-03-RH SHT20 3 Humidity 49.00 %RH
10989 02/09/2026 14:55:13 MB-L5-01Mainboard Lantai 5 L5-AI-04 Analog Input 4 3.05 V
10990 02/09/2026 14:55:13 MB-L5-01Mainboard Lantai 5 L5-AI-03 Analog Input 3 3.05 V
10991 02/09/2026 14:55:13 MB-L5-01Mainboard Lantai 5 L5-RAD-01 Radiation 1 1.00 W/m²
10992 02/09/2026 14:55:13 MB-L5-01Mainboard Lantai 5 L5-AI-02 Analog Input 2 3.05 V
10993 02/09/2026 14:55:13 MB-L5-01Mainboard Lantai 5 L5-AI-01 Analog Input 1 3.05 V
10994 02/09/2026 14:55:13 MB-L5-01Mainboard Lantai 5 L5-SHT-01-RH SHT20 1 Humidity 48.40 %RH
10995 02/09/2026 14:55:13 MB-L5-01Mainboard Lantai 5 L5-BGT-03 Black Globe Temperature 3 29.70 °C
10996 02/09/2026 14:55:13 MB-L5-01Mainboard Lantai 5 L5-LUX-01 Illuminance / LUX 1 214.00 lux
10997 02/09/2026 14:55:13 MB-L5-01Mainboard Lantai 5 L5-LUX-03 Illuminance / LUX 3 156.40 lux
10998 02/09/2026 14:55:13 MB-L5-01Mainboard Lantai 5 L5-BGT-02 Black Globe Temperature 2 29.70 °C
10999 02/09/2026 14:55:13 MB-L5-01Mainboard Lantai 5 L5-BGT-01 Black Globe Temperature 1 29.70 °C
11000 02/09/2026 14:55:13 MB-L5-01Mainboard Lantai 5 L5-HFT-02 Heat Flow Temperature 2 30.10 °C
Menampilkan maksimal 100 data per halaman